sensor_id;sensor_type;location;lat;lon;timestamp;P1;durP1;ratioP1;P2;durP2;ratioP2
58123;SDS011;46725;48.068;20.832;2023-03-01T00:01:02;28.88;;;14.43;;
58123;SDS011;46725;48.068;20.832;2023-03-01T00:03:29;27.92;;;14.25;;
58123;SDS011;46725;48.068;20.832;2023-03-01T00:05:55;26.13;;;12.63;;
58123;SDS011;46725;48.068;20.832;2023-03-01T00:08:21;30.23;;;13.73;;
58123;SDS011;46725;48.068;20.832;2023-03-01T00:10:47;28.33;;;13.90;;
58123;SDS011;46725;48.068;20.832;2023-03-01T00:13:13;28.00;;;13.98;;
58123;SDS011;46725;48.068;20.832;2023-03-01T00:15:40;28.10;;;14.07;;
58123;SDS011;46725;48.068;20.832;2023-03-01T00:18:07;27.77;;;13.90;;
58123;SDS011;46725;48.068;20.832;2023-03-01T00:20:33;28.48;;;13.80;;
58123;SDS011;46725;48.068;20.832;2023-03-01T00:22:59;29.75;;;13.80;;
58123;SDS011;46725;48.068;20.832;2023-03-01T00:25:25;29.42;;;13.68;;
58123;SDS011;46725;48.068;20.832;2023-03-01T00:27:51;26.30;;;14.60;;
58123;SDS011;46725;48.068;20.832;2023-03-01T00:30:18;29.83;;;13.77;;
58123;SDS011;46725;48.068;20.832;2023-03-01T00:32:44;26.70;;;13.05;;
58123;SDS011;46725;48.068;20.832;2023-03-01T00:35:10;27.48;;;13.88;;
58123;SDS011;46725;48.068;20.832;2023-03-01T00:37:36;25.80;;;13.60;;
58123;SDS011;46725;48.068;20.832;2023-03-01T00:40:02;27.70;;;13.65;;
58123;SDS011;46725;48.068;20.832;2023-03-01T00:42:31;26.92;;;13.13;;
58123;SDS011;46725;48.068;20.832;2023-03-01T00:44:57;27.83;;;13.50;;
58123;SDS011;46725;48.068;20.832;2023-03-01T00:47:23;28.15;;;13.20;;
58123;SDS011;46725;48.068;20.832;2023-03-01T00:49:49;28.30;;;13.23;;
58123;SDS011;46725;48.068;20.832;2023-03-01T00:52:15;28.98;;;14.35;;
58123;SDS011;46725;48.068;20.832;2023-03-01T00:54:41;37.10;;;14.75;;
58123;SDS011;46725;48.068;20.832;2023-03-01T00:57:07;28.50;;;13.45;;
58123;SDS011;46725;48.068;20.832;2023-03-01T00:59:33;36.30;;;14.45;;
58123;SDS011;46725;48.068;20.832;2023-03-01T01:01:59;32.05;;;15.20;;
58123;SDS011;46725;48.068;20.832;2023-03-01T01:04:26;30.75;;;14.43;;
58123;SDS011;46725;48.068;20.832;2023-03-01T01:06:52;28.63;;;15.02;;
58123;SDS011;46725;48.068;20.832;2023-03-01T01:09:18;35.70;;;15.50;;
58123;SDS011;46725;48.068;20.832;2023-03-01T01:11:45;35.75;;;16.95;;
58123;SDS011;46725;48.068;20.832;2023-03-01T01:14:11;37.03;;;15.40;;
58123;SDS011;46725;48.068;20.832;2023-03-01T01:16:38;35.58;;;15.80;;
58123;SDS011;46725;48.068;20.832;2023-03-01T01:19:04;38.45;;;17.13;;
58123;SDS011;46725;48.068;20.832;2023-03-01T01:21:30;35.17;;;16.67;;
58123;SDS011;46725;48.068;20.832;2023-03-01T01:23:56;32.55;;;15.55;;
58123;SDS011;46725;48.068;20.832;2023-03-01T01:26:26;35.70;;;15.35;;
58123;SDS011;46725;48.068;20.832;2023-03-01T01:28:53;34.08;;;16.05;;
58123;SDS011;46725;48.068;20.832;2023-03-01T01:31:19;35.40;;;15.75;;
58123;SDS011;46725;48.068;20.832;2023-03-01T01:33:48;37.10;;;16.40;;
58123;SDS011;46725;48.068;20.832;2023-03-01T01:36:14;34.83;;;16.65;;
58123;SDS011;46725;48.068;20.832;2023-03-01T01:38:40;30.73;;;14.60;;
58123;SDS011;46725;48.068;20.832;2023-03-01T01:41:07;35.03;;;15.90;;
58123;SDS011;46725;48.068;20.832;2023-03-01T01:43:34;34.45;;;16.27;;
58123;SDS011;46725;48.068;20.832;2023-03-01T01:46:01;33.55;;;15.85;;
58123;SDS011;46725;48.068;20.832;2023-03-01T01:48:37;32.85;;;16.20;;
58123;SDS011;46725;48.068;20.832;2023-03-01T01:51:10;36.70;;;16.88;;
58123;SDS011;46725;48.068;20.832;2023-03-01T01:53:36;37.10;;;17.83;;
58123;SDS011;46725;48.068;20.832;2023-03-01T01:56:05;34.83;;;17.40;;
58123;SDS011;46725;48.068;20.832;2023-03-01T01:58:33;40.40;;;17.08;;
58123;SDS011;46725;48.068;20.832;2023-03-01T02:00:59;38.70;;;17.88;;
58123;SDS011;46725;48.068;20.832;2023-03-01T02:03:27;41.33;;;18.77;;
58123;SDS011;46725;48.068;20.832;2023-03-01T02:08:25;40.83;;;18.40;;
58123;SDS011;46725;48.068;20.832;2023-03-01T02:10:52;35.25;;;18.30;;
58123;SDS011;46725;48.068;20.832;2023-03-01T02:13:20;36.92;;;18.48;;
58123;SDS011;46725;48.068;20.832;2023-03-01T02:15:46;41.85;;;18.40;;
58123;SDS011;46725;48.068;20.832;2023-03-01T02:18:14;39.28;;;20.00;;
58123;SDS011;46725;48.068;20.832;2023-03-01T02:23:15;36.75;;;19.27;;
58123;SDS011;46725;48.068;20.832;2023-03-01T02:25:44;38.83;;;19.02;;
58123;SDS011;46725;48.068;20.832;2023-03-01T02:30:46;38.90;;;20.50;;
58123;SDS011;46725;48.068;20.832;2023-03-01T02:33:31;43.42;;;19.67;;
58123;SDS011;46725;48.068;20.832;2023-03-01T02:36:01;40.65;;;20.88;;
58123;SDS011;46725;48.068;20.832;2023-03-01T02:38:27;41.30;;;20.90;;
58123;SDS011;46725;48.068;20.832;2023-03-01T02:40:54;44.55;;;21.15;;
58123;SDS011;46725;48.068;20.832;2023-03-01T02:43:20;45.05;;;21.45;;
58123;SDS011;46725;48.068;20.832;2023-03-01T02:45:51;48.55;;;21.98;;
58123;SDS011;46725;48.068;20.832;2023-03-01T02:48:18;44.35;;;22.73;;
58123;SDS011;46725;48.068;20.832;2023-03-01T02:53:13;41.63;;;21.67;;
58123;SDS011;46725;48.068;20.832;2023-03-01T02:55:41;45.40;;;22.50;;
58123;SDS011;46725;48.068;20.832;2023-03-01T02:58:08;46.03;;;21.23;;
58123;SDS011;46725;48.068;20.832;2023-03-01T03:00:35;47.35;;;22.58;;
58123;SDS011;46725;48.068;20.832;2023-03-01T03:03:05;44.78;;;21.75;;
58123;SDS011;46725;48.068;20.832;2023-03-01T03:05:31;40.75;;;20.38;;
58123;SDS011;46725;48.068;20.832;2023-03-01T03:07:59;52.38;;;21.85;;
58123;SDS011;46725;48.068;20.832;2023-03-01T03:10:27;46.13;;;22.77;;
58123;SDS011;46725;48.068;20.832;2023-03-01T03:12:54;44.28;;;21.65;;
58123;SDS011;46725;48.068;20.832;2023-03-01T03:15:21;46.47;;;22.52;;
58123;SDS011;46725;48.068;20.832;2023-03-01T03:17:48;47.95;;;21.80;;
58123;SDS011;46725;48.068;20.832;2023-03-01T03:20:15;44.72;;;21.27;;
58123;SDS011;46725;48.068;20.832;2023-03-01T03:22:47;44.55;;;21.42;;
58123;SDS011;46725;48.068;20.832;2023-03-01T03:25:13;48.20;;;22.25;;
58123;SDS011;46725;48.068;20.832;2023-03-01T03:27:40;43.90;;;19.98;;
58123;SDS011;46725;48.068;20.832;2023-03-01T03:30:10;45.95;;;22.52;;
58123;SDS011;46725;48.068;20.832;2023-03-01T03:32:40;39.78;;;20.13;;
58123;SDS011;46725;48.068;20.832;2023-03-01T03:35:07;39.65;;;18.20;;
58123;SDS011;46725;48.068;20.832;2023-03-01T03:37:40;41.83;;;18.85;;
58123;SDS011;46725;48.068;20.832;2023-03-01T03:40:26;35.90;;;17.27;;
58123;SDS011;46725;48.068;20.832;2023-03-01T03:42:52;36.03;;;17.15;;
58123;SDS011;46725;48.068;20.832;2023-03-01T03:45:18;39.22;;;18.08;;
58123;SDS011;46725;48.068;20.832;2023-03-01T03:47:44;36.53;;;16.83;;
58123;SDS011;46725;48.068;20.832;2023-03-01T03:50:11;35.92;;;17.95;;
58123;SDS011;46725;48.068;20.832;2023-03-01T03:52:37;39.30;;;17.33;;
58123;SDS011;46725;48.068;20.832;2023-03-01T03:55:04;32.38;;;16.42;;
58123;SDS011;46725;48.068;20.832;2023-03-01T03:57:41;37.65;;;17.23;;
58123;SDS011;46725;48.068;20.832;2023-03-01T04:00:09;40.42;;;18.77;;
58123;SDS011;46725;48.068;20.832;2023-03-01T04:02:41;37.67;;;17.58;;
58123;SDS011;46725;48.068;20.832;2023-03-01T04:05:09;33.88;;;16.95;;
58123;SDS011;46725;48.068;20.832;2023-03-01T04:07:35;35.22;;;16.08;;
58123;SDS011;46725;48.068;20.832;2023-03-01T04:10:02;33.38;;;16.40;;
58123;SDS011;46725;48.068;20.832;2023-03-01T04:12:28;33.03;;;16.23;;
58123;SDS011;46725;48.068;20.832;2023-03-01T04:14:54;35.25;;;17.02;;
58123;SDS011;46725;48.068;20.832;2023-03-01T04:17:20;35.92;;;16.63;;
58123;SDS011;46725;48.068;20.832;2023-03-01T04:19:47;32.75;;;16.33;;
58123;SDS011;46725;48.068;20.832;2023-03-01T04:22:14;31.15;;;14.98;;
58123;SDS011;46725;48.068;20.832;2023-03-01T04:24:43;28.95;;;14.23;;
58123;SDS011;46725;48.068;20.832;2023-03-01T04:27:09;28.20;;;13.98;;
58123;SDS011;46725;48.068;20.832;2023-03-01T04:29:35;28.30;;;12.50;;
58123;SDS011;46725;48.068;20.832;2023-03-01T04:32:01;26.80;;;14.07;;
58123;SDS011;46725;48.068;20.832;2023-03-01T04:34:28;27.60;;;13.75;;
58123;SDS011;46725;48.068;20.832;2023-03-01T04:36:54;28.98;;;13.32;;
58123;SDS011;46725;48.068;20.832;2023-03-01T04:39:20;23.23;;;12.48;;
58123;SDS011;46725;48.068;20.832;2023-03-01T04:41:46;27.05;;;12.85;;
58123;SDS011;46725;48.068;20.832;2023-03-01T04:44:13;26.95;;;10.65;;
58123;SDS011;46725;48.068;20.832;2023-03-01T04:46:39;24.85;;;12.95;;
58123;SDS011;46725;48.068;20.832;2023-03-01T04:49:05;24.08;;;11.50;;
58123;SDS011;46725;48.068;20.832;2023-03-01T04:51:31;26.27;;;12.02;;
58123;SDS011;46725;48.068;20.832;2023-03-01T04:53:57;21.48;;;11.07;;
58123;SDS011;46725;48.068;20.832;2023-03-01T04:56:25;22.92;;;11.00;;
58123;SDS011;46725;48.068;20.832;2023-03-01T04:58:54;21.42;;;11.35;;
58123;SDS011;46725;48.068;20.832;2023-03-01T05:01:21;26.80;;;11.65;;
58123;SDS011;46725;48.068;20.832;2023-03-01T05:03:48;25.38;;;13.30;;
58123;SDS011;46725;48.068;20.832;2023-03-01T05:06:15;22.77;;;11.63;;
58123;SDS011;46725;48.068;20.832;2023-03-01T05:08:42;24.90;;;11.77;;
58123;SDS011;46725;48.068;20.832;2023-03-01T05:11:09;24.35;;;13.05;;
58123;SDS011;46725;48.068;20.832;2023-03-01T05:13:36;26.33;;;12.02;;
58123;SDS011;46725;48.068;20.832;2023-03-01T05:16:03;26.40;;;13.40;;
58123;SDS011;46725;48.068;20.832;2023-03-01T05:18:30;25.10;;;12.18;;
58123;SDS011;46725;48.068;20.832;2023-03-01T05:21:02;24.73;;;12.32;;
58123;SDS011;46725;48.068;20.832;2023-03-01T05:25:57;16.67;;;9.18;;
58123;SDS011;46725;48.068;20.832;2023-03-01T05:28:24;21.15;;;9.95;;
58123;SDS011;46725;48.068;20.832;2023-03-01T05:30:51;22.33;;;11.20;;
58123;SDS011;46725;48.068;20.832;2023-03-01T05:33:17;20.70;;;10.27;;
58123;SDS011;46725;48.068;20.832;2023-03-01T05:35:44;24.38;;;11.38;;
58123;SDS011;46725;48.068;20.832;2023-03-01T05:38:11;22.25;;;9.88;;
58123;SDS011;46725;48.068;20.832;2023-03-01T05:40:44;20.23;;;10.18;;
58123;SDS011;46725;48.068;20.832;2023-03-01T05:43:12;20.77;;;10.48;;
58123;SDS011;46725;48.068;20.832;2023-03-01T05:45:39;20.15;;;9.95;;
58123;SDS011;46725;48.068;20.832;2023-03-01T05:48:06;20.45;;;11.05;;
58123;SDS011;46725;48.068;20.832;2023-03-01T05:50:33;21.58;;;10.30;;
58123;SDS011;46725;48.068;20.832;2023-03-01T05:53:01;22.23;;;9.95;;
58123;SDS011;46725;48.068;20.832;2023-03-01T05:55:27;22.52;;;10.98;;
58123;SDS011;46725;48.068;20.832;2023-03-01T05:57:54;26.00;;;12.38;;
58123;SDS011;46725;48.068;20.832;2023-03-01T06:00:20;21.45;;;11.63;;
58123;SDS011;46725;48.068;20.832;2023-03-01T06:02:49;22.05;;;11.60;;
58123;SDS011;46725;48.068;20.832;2023-03-01T06:05:17;19.02;;;9.73;;
58123;SDS011;46725;48.068;20.832;2023-03-01T06:07:43;21.38;;;9.85;;
58123;SDS011;46725;48.068;20.832;2023-03-01T06:10:10;21.15;;;10.65;;
58123;SDS011;46725;48.068;20.832;2023-03-01T06:12:37;21.05;;;10.18;;
58123;SDS011;46725;48.068;20.832;2023-03-01T06:15:03;22.52;;;10.65;;
58123;SDS011;46725;48.068;20.832;2023-03-01T06:17:30;18.35;;;9.23;;
58123;SDS011;46725;48.068;20.832;2023-03-01T06:19:56;17.88;;;8.40;;
58123;SDS011;46725;48.068;20.832;2023-03-01T06:22:23;21.63;;;10.40;;
58123;SDS011;46725;48.068;20.832;2023-03-01T06:24:49;23.50;;;10.88;;
58123;SDS011;46725;48.068;20.832;2023-03-01T06:27:15;20.75;;;9.95;;
58123;SDS011;46725;48.068;20.832;2023-03-01T06:29:41;20.45;;;10.18;;
58123;SDS011;46725;48.068;20.832;2023-03-01T06:32:07;21.30;;;9.75;;
58123;SDS011;46725;48.068;20.832;2023-03-01T06:34:33;23.65;;;10.43;;
58123;SDS011;46725;48.068;20.832;2023-03-01T06:36:59;20.70;;;10.25;;
58123;SDS011;46725;48.068;20.832;2023-03-01T06:39:30;22.55;;;10.90;;
58123;SDS011;46725;48.068;20.832;2023-03-01T06:41:56;22.40;;;10.68;;
58123;SDS011;46725;48.068;20.832;2023-03-01T06:44:22;19.42;;;9.90;;
58123;SDS011;46725;48.068;20.832;2023-03-01T06:46:48;23.33;;;10.48;;
58123;SDS011;46725;48.068;20.832;2023-03-01T06:49:14;19.42;;;10.60;;
58123;SDS011;46725;48.068;20.832;2023-03-01T06:51:41;21.13;;;9.57;;
58123;SDS011;46725;48.068;20.832;2023-03-01T06:54:07;20.50;;;9.93;;
58123;SDS011;46725;48.068;20.832;2023-03-01T06:56:33;21.60;;;10.50;;
58123;SDS011;46725;48.068;20.832;2023-03-01T06:58:59;24.08;;;11.02;;
58123;SDS011;46725;48.068;20.832;2023-03-01T07:01:25;20.90;;;10.05;;
58123;SDS011;46725;48.068;20.832;2023-03-01T07:03:51;21.10;;;9.80;;
58123;SDS011;46725;48.068;20.832;2023-03-01T07:06:17;21.08;;;10.25;;
58123;SDS011;46725;48.068;20.832;2023-03-01T07:08:44;19.40;;;9.45;;
58123;SDS011;46725;48.068;20.832;2023-03-01T07:11:10;23.15;;;10.25;;
58123;SDS011;46725;48.068;20.832;2023-03-01T07:13:36;23.77;;;10.48;;
58123;SDS011;46725;48.068;20.832;2023-03-01T07:16:02;20.40;;;10.48;;
58123;SDS011;46725;48.068;20.832;2023-03-01T07:18:28;19.77;;;9.55;;
58123;SDS011;46725;48.068;20.832;2023-03-01T07:20:55;18.85;;;9.40;;
58123;SDS011;46725;48.068;20.832;2023-03-01T07:23:21;19.17;;;9.98;;
58123;SDS011;46725;48.068;20.832;2023-03-01T07:25:53;24.88;;;10.68;;
58123;SDS011;46725;48.068;20.832;2023-03-01T07:28:20;20.17;;;9.77;;
58123;SDS011;46725;48.068;20.832;2023-03-01T07:30:46;19.80;;;10.18;;
58123;SDS011;46725;48.068;20.832;2023-03-01T07:33:12;21.88;;;10.95;;
58123;SDS011;46725;48.068;20.832;2023-03-01T07:35:38;19.90;;;9.45;;
58123;SDS011;46725;48.068;20.832;2023-03-01T07:38:04;24.05;;;10.95;;
58123;SDS011;46725;48.068;20.832;2023-03-01T07:40:30;20.35;;;10.30;;
58123;SDS011;46725;48.068;20.832;2023-03-01T07:42:57;24.05;;;10.27;;
58123;SDS011;46725;48.068;20.832;2023-03-01T07:45:24;39.55;;;13.48;;
58123;SDS011;46725;48.068;20.832;2023-03-01T07:47:50;23.88;;;10.43;;
58123;SDS011;46725;48.068;20.832;2023-03-01T07:50:17;21.02;;;10.30;;
58123;SDS011;46725;48.068;20.832;2023-03-01T07:52:46;19.00;;;9.63;;
58123;SDS011;46725;48.068;20.832;2023-03-01T07:55:13;19.65;;;9.85;;
58123;SDS011;46725;48.068;20.832;2023-03-01T07:57:39;22.65;;;12.45;;
58123;SDS011;46725;48.068;20.832;2023-03-01T08:00:06;22.52;;;11.55;;
58123;SDS011;46725;48.068;20.832;2023-03-01T08:02:32;22.08;;;10.65;;
58123;SDS011;46725;48.068;20.832;2023-03-01T08:04:58;22.60;;;11.25;;
58123;SDS011;46725;48.068;20.832;2023-03-01T08:07:24;18.50;;;9.60;;
58123;SDS011;46725;48.068;20.832;2023-03-01T08:09:50;26.75;;;11.02;;
58123;SDS011;46725;48.068;20.832;2023-03-01T08:12:16;23.83;;;11.07;;
58123;SDS011;46725;48.068;20.832;2023-03-01T08:14:42;19.23;;;10.23;;
58123;SDS011;46725;48.068;20.832;2023-03-01T08:17:08;19.23;;;9.75;;
58123;SDS011;46725;48.068;20.832;2023-03-01T08:19:35;21.52;;;9.95;;
58123;SDS011;46725;48.068;20.832;2023-03-01T08:22:01;25.08;;;10.75;;
58123;SDS011;46725;48.068;20.832;2023-03-01T08:24:27;22.30;;;11.00;;
58123;SDS011;46725;48.068;20.832;2023-03-01T08:26:54;20.85;;;10.48;;
58123;SDS011;46725;48.068;20.832;2023-03-01T08:29:20;22.98;;;10.93;;
58123;SDS011;46725;48.068;20.832;2023-03-01T08:31:46;18.55;;;9.30;;
58123;SDS011;46725;48.068;20.832;2023-03-01T08:34:13;23.70;;;11.82;;
58123;SDS011;46725;48.068;20.832;2023-03-01T08:36:40;17.42;;;10.32;;
58123;SDS011;46725;48.068;20.832;2023-03-01T08:39:08;23.10;;;11.18;;
58123;SDS011;46725;48.068;20.832;2023-03-01T08:41:34;22.27;;;10.95;;
58123;SDS011;46725;48.068;20.832;2023-03-01T08:44:00;22.35;;;11.25;;
58123;SDS011;46725;48.068;20.832;2023-03-01T08:46:34;23.70;;;11.68;;
58123;SDS011;46725;48.068;20.832;2023-03-01T08:49:04;23.88;;;11.52;;
58123;SDS011;46725;48.068;20.832;2023-03-01T08:51:30;23.65;;;11.35;;
58123;SDS011;46725;48.068;20.832;2023-03-01T08:54:01;23.55;;;12.07;;
58123;SDS011;46725;48.068;20.832;2023-03-01T08:56:27;24.30;;;12.40;;
58123;SDS011;46725;48.068;20.832;2023-03-01T08:58:53;21.95;;;11.23;;
58123;SDS011;46725;48.068;20.832;2023-03-01T09:01:20;19.80;;;10.25;;
58123;SDS011;46725;48.068;20.832;2023-03-01T09:03:46;23.02;;;10.35;;
58123;SDS011;46725;48.068;20.832;2023-03-01T09:06:12;24.35;;;10.05;;
58123;SDS011;46725;48.068;20.832;2023-03-01T09:08:40;18.10;;;9.30;;
58123;SDS011;46725;48.068;20.832;2023-03-01T09:11:08;17.42;;;8.98;;
58123;SDS011;46725;48.068;20.832;2023-03-01T09:13:34;18.05;;;9.13;;
58123;SDS011;46725;48.068;20.832;2023-03-01T09:16:01;16.60;;;9.27;;
58123;SDS011;46725;48.068;20.832;2023-03-01T09:18:28;19.80;;;10.50;;
58123;SDS011;46725;48.068;20.832;2023-03-01T09:21:03;19.98;;;10.20;;
58123;SDS011;46725;48.068;20.832;2023-03-01T09:23:36;18.42;;;8.98;;
58123;SDS011;46725;48.068;20.832;2023-03-01T09:26:04;16.95;;;8.93;;
58123;SDS011;46725;48.068;20.832;2023-03-01T09:28:30;21.92;;;9.02;;
58123;SDS011;46725;48.068;20.832;2023-03-01T09:31:00;21.88;;;9.70;;
58123;SDS011;46725;48.068;20.832;2023-03-01T09:33:28;19.08;;;9.32;;
58123;SDS011;46725;48.068;20.832;2023-03-01T09:35:58;18.67;;;9.32;;
58123;SDS011;46725;48.068;20.832;2023-03-01T09:38:24;17.95;;;9.73;;
58123;SDS011;46725;48.068;20.832;2023-03-01T09:40:50;17.38;;;9.43;;
58123;SDS011;46725;48.068;20.832;2023-03-01T09:46:03;18.92;;;9.75;;
58123;SDS011;46725;48.068;20.832;2023-03-01T09:48:32;16.65;;;8.85;;
58123;SDS011;46725;48.068;20.832;2023-03-01T09:50:59;18.83;;;10.10;;
58123;SDS011;46725;48.068;20.832;2023-03-01T09:53:32;17.67;;;9.95;;
58123;SDS011;46725;48.068;20.832;2023-03-01T09:58:58;19.73;;;9.80;;
58123;SDS011;46725;48.068;20.832;2023-03-01T10:01:36;20.33;;;9.07;;
58123;SDS011;46725;48.068;20.832;2023-03-01T10:04:50;18.75;;;9.43;;
58123;SDS011;46725;48.068;20.832;2023-03-01T10:06:52;18.45;;;8.75;;
58123;SDS011;46725;48.068;20.832;2023-03-01T10:09:20;16.67;;;8.00;;
58123;SDS011;46725;48.068;20.832;2023-03-01T10:11:48;19.92;;;9.68;;
58123;SDS011;46725;48.068;20.832;2023-03-01T10:16:58;21.17;;;9.77;;
58123;SDS011;46725;48.068;20.832;2023-03-01T10:21:57;17.67;;;8.82;;
58123;SDS011;46725;48.068;20.832;2023-03-01T10:24:26;18.27;;;8.98;;
58123;SDS011;46725;48.068;20.832;2023-03-01T10:26:55;19.15;;;9.40;;
58123;SDS011;46725;48.068;20.832;2023-03-01T10:29:27;21.80;;;10.18;;
58123;SDS011;46725;48.068;20.832;2023-03-01T10:31:56;19.40;;;10.10;;
58123;SDS011;46725;48.068;20.832;2023-03-01T10:34:33;18.65;;;9.75;;
58123;SDS011;46725;48.068;20.832;2023-03-01T10:39:37;19.38;;;10.65;;
58123;SDS011;46725;48.068;20.832;2023-03-01T10:42:22;20.95;;;11.52;;
58123;SDS011;46725;48.068;20.832;2023-03-01T10:44:50;19.33;;;10.15;;
58123;SDS011;46725;48.068;20.832;2023-03-01T10:50:06;17.50;;;9.50;;
58123;SDS011;46725;48.068;20.832;2023-03-01T10:52:36;14.75;;;8.15;;
58123;SDS011;46725;48.068;20.832;2023-03-01T10:57:33;17.85;;;9.30;;
58123;SDS011;46725;48.068;20.832;2023-03-01T11:02:49;18.27;;;8.40;;
58123;SDS011;46725;48.068;20.832;2023-03-01T11:05:17;16.23;;;8.82;;
58123;SDS011;46725;48.068;20.832;2023-03-01T11:07:50;17.48;;;9.90;;
58123;SDS011;46725;48.068;20.832;2023-03-01T11:10:17;16.90;;;8.60;;
58123;SDS011;46725;48.068;20.832;2023-03-01T11:12:43;17.00;;;9.50;;
58123;SDS011;46725;48.068;20.832;2023-03-01T11:15:19;16.90;;;9.18;;
58123;SDS011;46725;48.068;20.832;2023-03-01T11:17:45;17.30;;;8.77;;
58123;SDS011;46725;48.068;20.832;2023-03-01T11:22:49;15.65;;;8.80;;
58123;SDS011;46725;48.068;20.832;2023-03-01T11:25:16;19.88;;;10.48;;
58123;SDS011;46725;48.068;20.832;2023-03-01T11:27:44;28.10;;;9.00;;
58123;SDS011;46725;48.068;20.832;2023-03-01T11:32:40;17.77;;;8.93;;
58123;SDS011;46725;48.068;20.832;2023-03-01T11:35:18;16.92;;;8.40;;
58123;SDS011;46725;48.068;20.832;2023-03-01T11:40:21;18.20;;;9.50;;
58123;SDS011;46725;48.068;20.832;2023-03-01T11:42:54;15.02;;;8.70;;
58123;SDS011;46725;48.068;20.832;2023-03-01T11:45:23;19.48;;;9.48;;
58123;SDS011;46725;48.068;20.832;2023-03-01T11:50:26;19.77;;;9.38;;
58123;SDS011;46725;48.068;20.832;2023-03-01T11:55:35;16.42;;;9.00;;
58123;SDS011;46725;48.068;20.832;2023-03-01T12:00:51;15.88;;;9.13;;
58123;SDS011;46725;48.068;20.832;2023-03-01T12:03:23;15.52;;;8.57;;
58123;SDS011;46725;48.068;20.832;2023-03-01T12:11:36;15.68;;;8.68;;
58123;SDS011;46725;48.068;20.832;2023-03-01T12:17:18;16.83;;;8.63;;
58123;SDS011;46725;48.068;20.832;2023-03-01T12:20:10;17.75;;;9.20;;
58123;SDS011;46725;48.068;20.832;2023-03-01T12:22:44;17.25;;;9.30;;
58123;SDS011;46725;48.068;20.832;2023-03-01T12:25:16;16.55;;;8.20;;
58123;SDS011;46725;48.068;20.832;2023-03-01T12:38:15;13.13;;;6.63;;
58123;SDS011;46725;48.068;20.832;2023-03-01T12:43:31;14.85;;;6.82;;
58123;SDS011;46725;48.068;20.832;2023-03-01T12:49:09;11.95;;;6.25;;
58123;SDS011;46725;48.068;20.832;2023-03-01T12:51:37;13.00;;;6.93;;
58123;SDS011;46725;48.068;20.832;2023-03-01T12:54:16;12.70;;;7.07;;
58123;SDS011;46725;48.068;20.832;2023-03-01T12:56:46;13.25;;;6.13;;
58123;SDS011;46725;48.068;20.832;2023-03-01T13:07:09;10.45;;;5.75;;
58123;SDS011;46725;48.068;20.832;2023-03-01T13:12:46;14.73;;;5.00;;
58123;SDS011;46725;48.068;20.832;2023-03-01T13:17:48;10.10;;;5.43;;
58123;SDS011;46725;48.068;20.832;2023-03-01T13:20:15;14.80;;;5.43;;
58123;SDS011;46725;48.068;20.832;2023-03-01T13:22:42;9.43;;;5.72;;
58123;SDS011;46725;48.068;20.832;2023-03-01T13:25:16;15.32;;;7.60;;
58123;SDS011;46725;48.068;20.832;2023-03-01T13:27:43;9.27;;;4.80;;
58123;SDS011;46725;48.068;20.832;2023-03-01T13:30:52;12.20;;;5.22;;
58123;SDS011;46725;48.068;20.832;2023-03-01T13:35:51;9.07;;;4.40;;
58123;SDS011;46725;48.068;20.832;2023-03-01T13:41:02;9.18;;;4.35;;
58123;SDS011;46725;48.068;20.832;2023-03-01T13:43:32;8.63;;;4.30;;
58123;SDS011;46725;48.068;20.832;2023-03-01T13:46:00;7.45;;;3.80;;
58123;SDS011;46725;48.068;20.832;2023-03-01T13:48:28;8.10;;;4.05;;
58123;SDS011;46725;48.068;20.832;2023-03-01T13:50:57;7.90;;;4.15;;
58123;SDS011;46725;48.068;20.832;2023-03-01T13:53:26;8.55;;;4.10;;
58123;SDS011;46725;48.068;20.832;2023-03-01T13:55:55;11.15;;;5.28;;
58123;SDS011;46725;48.068;20.832;2023-03-01T13:58:23;10.10;;;5.13;;
58123;SDS011;46725;48.068;20.832;2023-03-01T14:03:25;6.30;;;3.40;;
58123;SDS011;46725;48.068;20.832;2023-03-01T14:06:08;8.70;;;3.72;;
58123;SDS011;46725;48.068;20.832;2023-03-01T14:08:35;6.55;;;3.40;;
58123;SDS011;46725;48.068;20.832;2023-03-01T14:21:17;9.48;;;4.65;;
58123;SDS011;46725;48.068;20.832;2023-03-01T14:23:43;6.03;;;2.90;;
58123;SDS011;46725;48.068;20.832;2023-03-01T14:26:11;10.35;;;4.47;;
58123;SDS011;46725;48.068;20.832;2023-03-01T14:28:37;6.50;;;3.30;;
58123;SDS011;46725;48.068;20.832;2023-03-01T14:31:28;10.48;;;4.18;;
58123;SDS011;46725;48.068;20.832;2023-03-01T14:33:58;9.55;;;3.50;;
58123;SDS011;46725;48.068;20.832;2023-03-01T14:36:29;6.53;;;2.72;;
58123;SDS011;46725;48.068;20.832;2023-03-01T14:38:55;7.55;;;2.97;;
58123;SDS011;46725;48.068;20.832;2023-03-01T14:41:29;6.70;;;3.13;;
58123;SDS011;46725;48.068;20.832;2023-03-01T14:43:57;10.10;;;3.53;;
58123;SDS011;46725;48.068;20.832;2023-03-01T14:46:33;7.00;;;2.38;;
58123;SDS011;46725;48.068;20.832;2023-03-01T14:49:23;7.18;;;3.17;;
58123;SDS011;46725;48.068;20.832;2023-03-01T14:51:57;6.18;;;3.03;;
58123;SDS011;46725;48.068;20.832;2023-03-01T14:54:28;21.80;;;4.53;;
58123;SDS011;46725;48.068;20.832;2023-03-01T14:56:59;7.13;;;3.50;;
58123;SDS011;46725;48.068;20.832;2023-03-01T14:59:25;9.40;;;3.67;;
58123;SDS011;46725;48.068;20.832;2023-03-01T15:01:53;6.80;;;3.08;;
58123;SDS011;46725;48.068;20.832;2023-03-01T15:04:19;6.60;;;3.03;;
58123;SDS011;46725;48.068;20.832;2023-03-01T15:06:47;5.65;;;3.20;;
58123;SDS011;46725;48.068;20.832;2023-03-01T15:09:15;5.25;;;2.63;;
58123;SDS011;46725;48.068;20.832;2023-03-01T15:11:42;6.13;;;2.13;;
58123;SDS011;46725;48.068;20.832;2023-03-01T15:16:54;9.68;;;4.20;;
58123;SDS011;46725;48.068;20.832;2023-03-01T15:19:20;11.90;;;4.63;;
58123;SDS011;46725;48.068;20.832;2023-03-01T15:21:49;8.63;;;5.53;;
58123;SDS011;46725;48.068;20.832;2023-03-01T15:24:16;9.43;;;4.97;;
58123;SDS011;46725;48.068;20.832;2023-03-01T15:26:53;8.98;;;5.25;;
58123;SDS011;46725;48.068;20.832;2023-03-01T15:29:21;9.07;;;5.53;;
58123;SDS011;46725;48.068;20.832;2023-03-01T15:31:55;13.48;;;8.23;;
58123;SDS011;46725;48.068;20.832;2023-03-01T15:34:23;13.68;;;7.28;;
58123;SDS011;46725;48.068;20.832;2023-03-01T15:36:49;12.93;;;6.70;;
58123;SDS011;46725;48.068;20.832;2023-03-01T15:41:51;27.10;;;13.43;;
58123;SDS011;46725;48.068;20.832;2023-03-01T15:44:27;15.80;;;6.65;;
58123;SDS011;46725;48.068;20.832;2023-03-01T15:46:53;15.57;;;6.45;;
58123;SDS011;46725;48.068;20.832;2023-03-01T15:52:01;9.95;;;5.05;;
58123;SDS011;46725;48.068;20.832;2023-03-01T15:54:27;11.57;;;5.28;;
58123;SDS011;46725;48.068;20.832;2023-03-01T15:56:54;13.20;;;6.70;;
58123;SDS011;46725;48.068;20.832;2023-03-01T15:59:20;13.70;;;8.25;;
58123;SDS011;46725;48.068;20.832;2023-03-01T16:01:47;17.13;;;11.02;;
58123;SDS011;46725;48.068;20.832;2023-03-01T16:04:14;16.27;;;9.98;;
58123;SDS011;46725;48.068;20.832;2023-03-01T16:06:48;16.20;;;8.60;;
58123;SDS011;46725;48.068;20.832;2023-03-01T16:09:19;21.15;;;10.60;;
58123;SDS011;46725;48.068;20.832;2023-03-01T16:11:45;21.70;;;11.75;;
58123;SDS011;46725;48.068;20.832;2023-03-01T16:14:11;23.45;;;12.90;;
58123;SDS011;46725;48.068;20.832;2023-03-01T16:16:37;23.52;;;12.13;;